createdAt,value
2023-02-26T00:02:19.673Z,72.92
2023-02-26T00:04:46.061Z,73.41
2023-02-26T00:07:12.402Z,72.86
2023-02-26T00:09:38.727Z,73.22
2023-02-26T00:12:05.389Z,73.50
2023-02-26T00:14:31.871Z,73.21
2023-02-26T00:17:22.321Z,73.84
2023-02-26T00:19:48.902Z,72.68
2023-02-26T00:22:15.665Z,71.96
2023-02-26T00:24:42.241Z,71.90
2023-02-26T00:27:11.256Z,72.64
2023-02-26T00:29:38.136Z,71.36
2023-02-26T00:32:05.181Z,71.98
2023-02-26T00:34:31.987Z,71.26
2023-02-26T00:37:07.436Z,71.22
2023-02-26T00:39:50.582Z,71.70
2023-02-26T00:42:17.349Z,71.13
2023-02-26T00:44:44.396Z,71.43
2023-02-26T00:47:37.641Z,71.01
2023-02-26T00:50:15.907Z,71.00
2023-02-26T00:53:00.773Z,71.69
2023-02-26T00:55:28.477Z,71.19
2023-02-26T00:57:55.569Z,71.46
2023-02-26T01:00:22.324Z,71.26
2023-02-26T01:02:49.190Z,71.86
2023-02-26T01:05:16.158Z,71.51
2023-02-26T01:08:19.758Z,71.49
2023-02-26T01:10:46.544Z,70.94
2023-02-26T01:13:13.095Z,69.94
2023-02-26T01:15:47.637Z,69.26
2023-02-26T01:18:18.849Z,69.25
2023-02-26T01:20:50.679Z,68.65
2023-02-26T01:23:24.270Z,69.15
2023-02-26T01:25:57.697Z,69.49
2023-02-26T01:28:25.600Z,68.57
2023-02-26T01:30:56.082Z,68.52
2023-02-26T01:33:43.623Z,68.08
2023-02-26T01:36:33.242Z,68.73
2023-02-26T01:39:06.984Z,68.88
2023-02-26T01:41:38.875Z,68.87
2023-02-26T01:44:08.248Z,68.09
2023-02-26T01:46:45.691Z,69.31
2023-02-26T01:49:17.805Z,69.93
2023-02-26T01:51:58.563Z,68.67
2023-02-26T01:54:37.442Z,68.86
2023-02-26T01:57:16.915Z,68.43
2023-02-26T01:59:51.279Z,68.53
2023-02-26T02:02:22.090Z,68.45
2023-02-26T02:04:49.840Z,67.50
2023-02-26T02:07:17.403Z,67.37
2023-02-26T02:09:47.380Z,67.19
2023-02-26T02:12:34.976Z,67.68
2023-02-26T02:15:04.354Z,68.50
2023-02-26T02:17:36.775Z,68.25
2023-02-26T02:20:21.850Z,68.96
2023-02-26T02:23:07.938Z,68.53
2023-02-26T02:26:05.088Z,69.22
2023-02-26T02:28:49.373Z,67.97
2023-02-26T02:31:20.811Z,68.71
2023-02-26T02:34:09.386Z,68.93
2023-02-26T02:36:43.036Z,68.92
2023-02-26T02:39:27.890Z,68.67
2023-02-26T02:42:03.575Z,68.87
2023-02-26T02:44:32.730Z,69.75
2023-02-26T02:47:00.483Z,68.85
2023-02-26T02:49:34.019Z,68.67
2023-02-26T02:52:07.747Z,69.22
2023-02-26T02:54:42.138Z,69.00
2023-02-26T02:57:11.870Z,69.83
2023-02-26T02:59:46.164Z,69.53
2023-02-26T03:02:22.773Z,70.73
2023-02-26T03:04:49.611Z,70.48
2023-02-26T03:07:16.053Z,70.20
2023-02-26T03:09:42.990Z,70.54
2023-02-26T03:12:12.265Z,71.45
2023-02-26T03:14:39.679Z,71.12
2023-02-26T03:17:24.318Z,71.51
2023-02-26T03:20:13.298Z,71.75
2023-02-26T03:22:53.492Z,72.02
2023-02-26T03:25:35.478Z,72.72
2023-02-26T03:28:21.019Z,72.49
2023-02-26T03:31:14.485Z,73.00
2023-02-26T03:33:54.388Z,73.04
2023-02-26T03:36:35.788Z,73.48
2023-02-26T03:39:36.731Z,73.61
2023-02-26T03:42:15.644Z,73.10
2023-02-26T03:45:01.005Z,73.38
2023-02-26T03:47:29.454Z,73.95
2023-02-26T03:50:07.080Z,73.96
2023-02-26T03:52:47.196Z,73.98
2023-02-26T03:55:59.264Z,73.92
2023-02-26T03:58:45.371Z,73.24
2023-02-26T04:01:35.613Z,73.12
2023-02-26T04:04:09.019Z,73.32
2023-02-26T04:06:35.687Z,73.38
2023-02-26T04:09:04.100Z,73.04
2023-02-26T04:11:34.802Z,73.04
2023-02-26T04:14:01.205Z,73.39
2023-02-26T04:16:29.223Z,73.02
2023-02-26T04:18:56.059Z,73.54
2023-02-26T04:21:22.926Z,73.07
2023-02-26T04:23:49.545Z,73.51
2023-02-26T04:26:15.957Z,73.03
2023-02-26T04:28:43.727Z,73.22
2023-02-26T04:31:10.669Z,72.84
2023-02-26T04:33:38.287Z,72.81
2023-02-26T04:36:05.094Z,72.91
2023-02-26T04:38:31.596Z,72.97
2023-02-26T04:40:57.966Z,72.49
2023-02-26T04:43:24.572Z,72.85
2023-02-26T04:46:04.469Z,72.52
2023-02-26T04:48:31.552Z,72.74
2023-02-26T04:50:57.951Z,71.92
2023-02-26T04:53:24.302Z,71.41
2023-02-26T04:55:52.340Z,71.92
2023-02-26T04:58:18.990Z,71.74
2023-02-26T05:00:50.179Z,72.47
2023-02-26T05:03:17.082Z,71.70
2023-02-26T05:05:44.161Z,72.28
2023-02-26T05:08:10.711Z,72.16
2023-02-26T05:10:37.279Z,71.87
2023-02-26T05:13:04.251Z,71.71
2023-02-26T05:15:30.943Z,72.40
2023-02-26T05:17:57.316Z,72.36
2023-02-26T05:20:23.673Z,72.27
2023-02-26T05:22:50.278Z,72.33
2023-02-26T05:25:16.842Z,72.29
2023-02-26T05:27:43.361Z,71.82
2023-02-26T05:30:12.087Z,72.33
2023-02-26T05:32:38.511Z,72.27
2023-02-26T05:35:05.281Z,71.98
2023-02-26T05:37:31.800Z,72.24
2023-02-26T05:39:58.264Z,72.48
2023-02-26T05:42:25.015Z,72.91
2023-02-26T05:44:51.420Z,72.34
2023-02-26T05:47:18.082Z,72.41
2023-02-26T05:49:44.411Z,72.90
2023-02-26T05:52:10.745Z,72.87
2023-02-26T05:54:37.069Z,72.25
2023-02-26T05:57:03.518Z,72.66
2023-02-26T05:59:29.895Z,73.05
2023-02-26T06:01:56.355Z,72.55
2023-02-26T06:04:22.715Z,72.54
2023-02-26T06:06:49.161Z,72.56
2023-02-26T06:09:15.525Z,72.40
2023-02-26T06:11:41.885Z,72.48
2023-02-26T06:14:08.240Z,72.38
2023-02-26T06:16:35.792Z,72.01
2023-02-26T06:19:02.726Z,72.53
2023-02-26T06:21:29.576Z,72.21
2023-02-26T06:23:55.899Z,72.80
2023-02-26T06:26:23.856Z,72.62
2023-02-26T06:28:50.763Z,72.60
2023-02-26T06:31:17.223Z,72.51
2023-02-26T06:33:43.561Z,72.66
2023-02-26T06:36:09.896Z,72.66
2023-02-26T06:38:36.399Z,72.49
2023-02-26T06:41:02.759Z,72.70
2023-02-26T06:43:29.220Z,71.82
2023-02-26T06:45:59.392Z,72.81
2023-02-26T06:48:26.884Z,72.81
2023-02-26T06:50:53.248Z,72.41
2023-02-26T06:53:19.753Z,72.33
2023-02-26T06:55:47.158Z,72.49
2023-02-26T06:58:13.895Z,72.53
2023-02-26T07:00:41.391Z,71.88
2023-02-26T07:03:12.008Z,72.83
2023-02-26T07:05:38.346Z,72.52
2023-02-26T07:08:05.423Z,72.22
2023-02-26T07:10:33.610Z,72.10
2023-02-26T07:13:00.315Z,72.30
2023-02-26T07:15:26.996Z,72.20
2023-02-26T07:17:53.312Z,71.78
2023-02-26T07:20:19.840Z,71.83
2023-02-26T07:22:46.255Z,72.03
2023-02-26T07:25:12.983Z,71.28
2023-02-26T07:27:39.488Z,71.63
2023-02-26T07:30:07.157Z,70.58
2023-02-26T07:32:33.978Z,71.41
2023-02-26T07:35:00.342Z,70.61
2023-02-26T07:37:27.028Z,69.91
2023-02-26T07:39:53.644Z,70.07
2023-02-26T07:42:20.035Z,70.46
2023-02-26T07:44:46.464Z,70.91
2023-02-26T07:47:12.969Z,69.33
2023-02-26T07:49:39.697Z,69.07
2023-02-26T07:52:09.703Z,70.96
2023-02-26T07:54:36.271Z,68.58
2023-02-26T07:57:02.864Z,69.41
2023-02-26T07:59:29.246Z,68.38
2023-02-26T08:01:55.783Z,68.22
2023-02-26T08:04:23.033Z,69.13
2023-02-26T08:06:49.471Z,68.92
2023-02-26T08:09:15.866Z,67.20
2023-02-26T08:11:43.222Z,67.69
2023-02-26T08:14:11.215Z,66.99
2023-02-26T08:16:37.714Z,67.80
2023-02-26T08:19:04.142Z,65.32
2023-02-26T08:21:30.908Z,66.77
2023-02-26T08:23:57.513Z,66.66
2023-02-26T08:26:24.568Z,65.87
2023-02-26T08:28:51.637Z,64.52
2023-02-26T08:31:18.413Z,65.84
2023-02-26T08:33:44.808Z,65.29
2023-02-26T08:36:11.828Z,64.35
2023-02-26T08:38:38.262Z,64.87
2023-02-26T08:41:05.027Z,62.85
2023-02-26T08:43:31.382Z,63.78
2023-02-26T08:45:58.166Z,63.27
2023-02-26T08:48:24.626Z,63.09
2023-02-26T08:50:51.186Z,62.23
2023-02-26T08:53:17.633Z,62.30
2023-02-26T08:55:48.119Z,62.55
2023-02-26T08:58:14.444Z,61.67
2023-02-26T09:00:40.786Z,62.14
2023-02-26T09:03:07.189Z,60.15
2023-02-26T09:05:33.604Z,61.07
2023-02-26T09:08:00.010Z,60.42
2023-02-26T09:10:26.447Z,58.50
2023-02-26T09:12:52.773Z,58.90
2023-02-26T09:15:19.880Z,59.30
2023-02-26T09:17:47.996Z,60.23
2023-02-26T09:20:15.312Z,58.29
2023-02-26T09:22:41.686Z,59.19
2023-02-26T09:25:08.566Z,57.30
2023-02-26T09:27:35.528Z,58.33
2023-02-26T09:30:03.387Z,58.55
2023-02-26T09:32:29.942Z,58.49
2023-02-26T09:34:56.417Z,56.99
2023-02-26T09:37:23.060Z,56.62
2023-02-26T09:39:49.386Z,55.79
2023-02-26T09:42:44.355Z,57.41
2023-02-26T09:45:30.650Z,57.69
2023-02-26T09:47:57.525Z,56.59
2023-02-26T09:50:39.289Z,57.00
2023-02-26T09:53:21.691Z,56.01
2023-02-26T09:55:50.662Z,56.66
2023-02-26T09:58:50.323Z,55.44
2023-02-26T10:01:31.735Z,56.15
2023-02-26T10:04:20.790Z,56.52
2023-02-26T10:07:05.570Z,55.91
2023-02-26T10:09:48.963Z,54.53
2023-02-26T10:12:21.619Z,54.87
2023-02-26T10:14:58.830Z,54.12
2023-02-26T10:17:42.094Z,54.44
2023-02-26T10:20:23.354Z,53.68
2023-02-26T10:23:01.739Z,52.33
2023-02-26T10:25:46.571Z,53.18
2023-02-26T10:28:31.675Z,53.19
2023-02-26T10:31:09.199Z,53.20
2023-02-26T10:33:50.149Z,52.23
2023-02-26T10:36:27.817Z,49.90
2023-02-26T10:39:09.522Z,49.90
2023-02-26T10:41:37.171Z,48.56
2023-02-26T10:44:18.814Z,51.01
2023-02-26T10:47:02.598Z,49.92
2023-02-26T10:49:36.430Z,51.33
2023-02-26T10:52:12.317Z,50.88
2023-02-26T10:55:04.013Z,50.41
2023-02-26T10:57:34.468Z,50.32
2023-02-26T11:00:02.156Z,50.93
2023-02-26T11:02:37.592Z,49.68
2023-02-26T11:05:07.953Z,48.70
2023-02-26T11:07:37.771Z,47.69
2023-02-26T11:10:04.999Z,47.47
2023-02-26T11:12:32.413Z,47.18
2023-02-26T11:15:01.768Z,46.54
2023-02-26T11:17:32.207Z,46.58
2023-02-26T11:20:05.351Z,46.27
2023-02-26T11:22:36.024Z,45.37
2023-02-26T11:25:03.934Z,46.63
2023-02-26T11:27:34.336Z,47.77
2023-02-26T11:30:07.953Z,48.01
2023-02-26T11:32:39.290Z,48.54
2023-02-26T11:35:09.155Z,49.12
2023-02-26T11:37:40.520Z,48.44
2023-02-26T11:40:26.648Z,47.29
2023-02-26T11:42:56.060Z,47.55
2023-02-26T11:45:22.748Z,47.73
2023-02-26T11:47:55.787Z,45.20
2023-02-26T11:50:23.465Z,47.18
2023-02-26T11:53:04.027Z,47.31
2023-02-26T11:55:44.413Z,44.80
2023-02-26T11:58:23.687Z,46.98
2023-02-26T12:00:54.398Z,46.33
2023-02-26T12:03:23.978Z,46.15
2023-02-26T12:05:53.105Z,46.21
2023-02-26T12:08:27.487Z,46.59
2023-02-26T12:11:08.254Z,46.58
2023-02-26T12:13:58.164Z,45.99
2023-02-26T12:16:49.538Z,47.59
2023-02-26T12:19:38.201Z,48.45
2023-02-26T12:22:29.708Z,47.96
2023-02-26T12:25:17.791Z,47.04
2023-02-26T12:28:01.338Z,46.49
2023-02-26T12:30:52.628Z,45.75
2023-02-26T12:33:57.919Z,46.47
2023-02-26T12:36:56.522Z,45.95
2023-02-26T12:39:44.939Z,47.21
2023-02-26T12:42:59.549Z,47.84
2023-02-26T12:45:39.734Z,45.71
2023-02-26T12:48:43.322Z,47.36
2023-02-26T12:51:26.593Z,46.98
2023-02-26T12:54:06.788Z,45.28
2023-02-26T12:57:00.702Z,44.24
2023-02-26T12:59:30.177Z,45.47
2023-02-26T13:02:25.082Z,46.37
2023-02-26T13:05:24.047Z,44.45
2023-02-26T13:08:09.131Z,43.13
2023-02-26T13:11:05.270Z,43.79
2023-02-26T13:13:59.488Z,43.42
2023-02-26T13:16:48.033Z,44.25
2023-02-26T13:19:43.132Z,44.99
2023-02-26T13:22:20.118Z,43.19
2023-02-26T13:24:53.658Z,42.75
2023-02-26T13:27:26.127Z,43.51
2023-02-26T13:30:04.779Z,42.69
2023-02-26T13:32:33.736Z,41.50
2023-02-26T13:35:06.127Z,42.32
2023-02-26T13:37:42.079Z,42.08
2023-02-26T13:40:14.232Z,41.51
2023-02-26T13:42:51.408Z,40.74
2023-02-26T13:45:46.267Z,41.47
2023-02-26T13:48:35.963Z,41.99
2023-02-26T13:51:30.587Z,41.00
2023-02-26T13:54:17.076Z,41.52
2023-02-26T13:56:46.495Z,43.49
2023-02-26T13:59:13.234Z,42.37
2023-02-26T14:01:50.115Z,42.67
2023-02-26T14:04:22.464Z,42.13
2023-02-26T14:06:54.726Z,42.35
2023-02-26T14:09:24.068Z,42.71
2023-02-26T14:12:23.964Z,42.81
2023-02-26T14:15:02.319Z,42.54
2023-02-26T14:17:34.394Z,42.47
2023-02-26T14:20:15.201Z,42.29
2023-02-26T14:22:43.258Z,41.77
2023-02-26T14:25:22.602Z,42.29
2023-02-26T14:27:49.847Z,42.75
2023-02-26T14:30:28.976Z,42.06
2023-02-26T14:32:56.060Z,42.53
2023-02-26T14:35:25.904Z,42.75
2023-02-26T14:38:02.960Z,42.26
2023-02-26T14:40:44.716Z,42.83
2023-02-26T14:43:19.127Z,43.66
2023-02-26T14:45:45.968Z,44.16
2023-02-26T14:48:20.339Z,43.11
2023-02-26T14:51:01.833Z,44.62
2023-02-26T14:53:50.163Z,43.79
2023-02-26T14:56:31.452Z,43.64
2023-02-26T14:59:28.975Z,44.07
2023-02-26T15:02:17.167Z,42.86
2023-02-26T15:04:58.593Z,44.31
2023-02-26T15:07:24.992Z,43.43
2023-02-26T15:10:00.129Z,43.55
2023-02-26T15:12:42.340Z,43.95
2023-02-26T15:15:27.506Z,44.83
2023-02-26T15:17:56.862Z,44.78
2023-02-26T15:20:54.243Z,44.49
2023-02-26T15:23:29.946Z,43.69
2023-02-26T15:25:59.125Z,43.61
2023-02-26T15:28:32.914Z,43.24
2023-02-26T15:31:01.341Z,43.99
2023-02-26T15:33:29.436Z,44.06
2023-02-26T15:35:58.901Z,43.97
2023-02-26T15:39:21.217Z,43.41
2023-02-26T15:41:49.075Z,43.04
2023-02-26T15:44:21.624Z,42.47
2023-02-26T15:46:53.596Z,42.63
2023-02-26T15:49:20.288Z,42.85
2023-02-26T15:51:47.171Z,43.03
2023-02-26T15:54:20.727Z,42.22
2023-02-26T15:56:48.307Z,43.14
2023-02-26T15:59:29.185Z,43.01
2023-02-26T16:01:56.039Z,42.64
2023-02-26T16:04:23.554Z,42.97
2023-02-26T16:06:54.583Z,43.28
2023-02-26T16:09:25.896Z,43.25
2023-02-26T16:11:55.427Z,43.60
2023-02-26T16:14:27.215Z,43.00
2023-02-26T16:16:56.629Z,42.53
2023-02-26T16:19:34.722Z,42.40
2023-02-26T16:22:06.441Z,42.29
2023-02-26T16:24:33.643Z,42.73
2023-02-26T16:27:04.791Z,41.97
2023-02-26T16:29:34.925Z,42.05
2023-02-26T16:32:04.675Z,42.55
2023-02-26T16:34:37.820Z,42.52
2023-02-26T16:37:18.170Z,42.89
2023-02-26T16:39:45.496Z,43.18
2023-02-26T16:42:19.795Z,42.96
2023-02-26T16:44:50.691Z,43.11
2023-02-26T16:47:19.847Z,43.19
2023-02-26T16:49:47.889Z,43.38
2023-02-26T16:52:18.501Z,42.81
2023-02-26T16:54:54.623Z,43.81
2023-02-26T16:57:32.602Z,44.08
2023-02-26T17:00:06.586Z,44.01
2023-02-26T17:02:36.444Z,44.37
2023-02-26T17:05:17.517Z,45.57
2023-02-26T17:07:52.828Z,45.23
2023-02-26T17:10:33.877Z,45.98
2023-02-26T17:13:17.337Z,46.46
2023-02-26T17:15:46.378Z,46.88
2023-02-26T17:18:13.765Z,46.92
2023-02-26T17:20:40.604Z,46.77
2023-02-26T17:23:11.137Z,47.11
2023-02-26T17:25:50.512Z,47.77
2023-02-26T17:28:26.963Z,47.85
2023-02-26T17:30:54.574Z,48.09
2023-02-26T17:33:21.768Z,48.85
2023-02-26T17:35:49.295Z,48.91
2023-02-26T17:38:16.376Z,49.24
2023-02-26T17:40:45.235Z,49.27
2023-02-26T17:43:11.647Z,49.67
2023-02-26T17:45:40.344Z,50.08
2023-02-26T17:48:07.627Z,50.19
2023-02-26T17:50:54.762Z,50.70
2023-02-26T17:53:23.760Z,50.77
2023-02-26T17:55:56.355Z,50.66
2023-02-26T17:58:30.647Z,51.62
2023-02-26T18:00:57.250Z,51.58
2023-02-26T18:03:23.992Z,51.41
2023-02-26T18:05:53.011Z,52.03
2023-02-26T18:08:40.607Z,51.74
2023-02-26T18:11:07.913Z,52.20
2023-02-26T18:13:34.272Z,52.42
2023-02-26T18:16:02.676Z,52.37
2023-02-26T18:18:29.984Z,52.82
2023-02-26T18:20:56.456Z,53.06
2023-02-26T18:23:22.866Z,53.04
2023-02-26T18:25:52.652Z,53.27
2023-02-26T18:28:27.785Z,53.48
2023-02-26T18:30:56.398Z,53.62
2023-02-26T18:33:23.759Z,54.39
2023-02-26T18:35:56.584Z,54.27
2023-02-26T18:38:26.065Z,54.84
2023-02-26T18:40:53.680Z,55.61
2023-02-26T18:43:20.461Z,55.28
2023-02-26T18:45:48.904Z,55.26
2023-02-26T18:48:17.854Z,55.30
2023-02-26T18:50:45.524Z,55.09
2023-02-26T18:53:13.376Z,55.00
2023-02-26T18:55:39.717Z,55.41
2023-02-26T18:58:06.117Z,55.48
2023-02-26T19:00:32.514Z,55.50
2023-02-26T19:02:58.835Z,55.39
2023-02-26T19:05:26.493Z,55.64
2023-02-26T19:07:54.142Z,55.81
2023-02-26T19:10:21.576Z,56.44
2023-02-26T19:12:48.073Z,56.38
2023-02-26T19:15:14.510Z,56.31
2023-02-26T19:17:42.380Z,56.55
2023-02-26T19:20:09.837Z,57.13
2023-02-26T19:22:36.472Z,57.01
2023-02-26T19:25:03.683Z,57.71
2023-02-26T19:27:30.071Z,58.21
2023-02-26T19:29:56.440Z,58.30
2023-02-26T19:32:22.972Z,58.67
2023-02-26T19:34:49.720Z,58.22
2023-02-26T19:37:16.045Z,58.59
2023-02-26T19:39:42.424Z,58.27
2023-02-26T19:42:08.817Z,58.69
2023-02-26T19:44:35.728Z,59.01
2023-02-26T19:47:03.149Z,58.32
2023-02-26T19:49:29.876Z,58.88
2023-02-26T19:51:56.540Z,58.53
2023-02-26T19:54:22.939Z,59.02
2023-02-26T19:56:49.828Z,59.44
2023-02-26T19:59:17.372Z,59.00
2023-02-26T20:01:43.902Z,59.61
2023-02-26T20:04:10.537Z,59.68
2023-02-26T20:06:36.997Z,59.32
2023-02-26T20:09:04.514Z,59.67
2023-02-26T20:11:30.891Z,59.97
2023-02-26T20:13:57.404Z,60.34
2023-02-26T20:16:24.587Z,59.92
2023-02-26T20:18:51.234Z,60.42
2023-02-26T20:21:17.858Z,60.14
2023-02-26T20:23:44.257Z,60.20
2023-02-26T20:26:13.223Z,60.55
2023-02-26T20:28:40.880Z,59.59
2023-02-26T20:31:07.964Z,60.34
2023-02-26T20:33:36.050Z,60.55
2023-02-26T20:36:03.310Z,59.78
2023-02-26T20:38:29.726Z,59.53
2023-02-26T20:40:56.709Z,59.50
2023-02-26T20:43:24.929Z,59.38
2023-02-26T20:45:51.998Z,59.86
2023-02-26T20:48:18.341Z,59.64
2023-02-26T20:50:44.827Z,59.71
2023-02-26T20:53:11.206Z,59.04
2023-02-26T20:55:37.591Z,59.26
2023-02-26T20:58:04.378Z,59.54
2023-02-26T21:00:31.154Z,59.69
2023-02-26T21:02:57.558Z,59.86
2023-02-26T21:05:24.206Z,60.19
2023-02-26T21:07:51.031Z,60.06
2023-02-26T21:10:18.853Z,59.52
2023-02-26T21:12:45.427Z,59.63
2023-02-26T21:15:12.838Z,60.18
2023-02-26T21:17:41.055Z,60.13
2023-02-26T21:20:09.978Z,60.30
2023-02-26T21:22:36.400Z,61.06
2023-02-26T21:25:06.687Z,60.82
2023-02-26T21:27:34.193Z,60.64
2023-02-26T21:30:00.530Z,60.32
2023-02-26T21:32:27.119Z,60.49
2023-02-26T21:34:53.578Z,61.25
2023-02-26T21:37:19.902Z,61.27
2023-02-26T21:39:47.986Z,61.18
2023-02-26T21:42:14.335Z,60.90
2023-02-26T21:44:41.017Z,61.70
2023-02-26T21:47:07.660Z,61.80
2023-02-26T21:49:34.239Z,61.54
2023-02-26T21:52:03.672Z,61.60
2023-02-26T21:54:30.465Z,61.47
2023-02-26T21:56:57.470Z,62.71
2023-02-26T21:59:23.895Z,63.10
2023-02-26T22:01:50.887Z,62.49
2023-02-26T22:04:18.478Z,62.95
2023-02-26T22:06:45.409Z,62.73
2023-02-26T22:09:11.953Z,62.93
2023-02-26T22:11:38.355Z,63.98
2023-02-26T22:14:04.863Z,63.71
2023-02-26T22:16:31.269Z,64.34
2023-02-26T22:18:57.640Z,64.83
2023-02-26T22:21:24.290Z,64.72
2023-02-26T22:23:50.795Z,64.50
2023-02-26T22:26:17.641Z,65.18
2023-02-26T22:28:44.004Z,65.30
2023-02-26T22:31:10.413Z,64.72
2023-02-26T22:33:36.787Z,64.41
2023-02-26T22:36:03.521Z,65.53
2023-02-26T22:38:30.899Z,65.17
2023-02-26T22:40:57.540Z,64.94
2023-02-26T22:43:23.886Z,66.10
2023-02-26T22:45:50.295Z,66.45
2023-02-26T22:48:17.529Z,65.02
2023-02-26T22:50:44.203Z,66.30
2023-02-26T22:53:10.591Z,65.68
2023-02-26T22:55:36.978Z,66.49
2023-02-26T22:58:03.533Z,66.36
2023-02-26T23:00:30.112Z,66.24
2023-02-26T23:02:56.465Z,66.15
2023-02-26T23:05:23.189Z,66.38
2023-02-26T23:07:49.608Z,67.07
2023-02-26T23:10:18.728Z,66.53
2023-02-26T23:12:46.852Z,67.72
2023-02-26T23:15:14.287Z,68.24
2023-02-26T23:17:41.774Z,68.53
2023-02-26T23:20:10.046Z,67.62
2023-02-26T23:22:37.231Z,68.68
2023-02-26T23:25:03.883Z,68.46
2023-02-26T23:27:30.244Z,68.89
2023-02-26T23:29:56.583Z,68.09
2023-02-26T23:32:22.998Z,69.28
2023-02-26T23:34:49.439Z,68.98
2023-02-26T23:37:15.843Z,68.91
2023-02-26T23:39:42.169Z,68.61
2023-02-26T23:42:08.593Z,69.11
2023-02-26T23:44:34.963Z,69.43
2023-02-26T23:47:01.287Z,69.85
2023-02-26T23:49:27.626Z,69.79
2023-02-26T23:51:53.965Z,69.94
2023-02-26T23:54:20.309Z,70.19
2023-02-26T23:56:47.514Z,70.19
2023-02-26T23:59:13.915Z,71.06
